sensor_id;sensor_type;location;lat;lon;timestamp;P1;durP1;ratioP1;P2;durP2;ratioP2
53670;SDS011;39571;48.612;8.088;2023-04-15T06:55:53;5.65;;;3.50;;
53670;SDS011;39571;48.612;8.088;2023-04-15T06:58:18;6.50;;;3.58;;
53670;SDS011;39571;48.612;8.088;2023-04-15T07:00:43;7.15;;;4.38;;
53670;SDS011;39571;48.612;8.088;2023-04-15T07:03:10;6.35;;;3.90;;
53670;SDS011;39571;48.612;8.088;2023-04-15T07:05:36;5.85;;;3.47;;
53670;SDS011;39571;48.612;8.088;2023-04-15T07:08:02;25.25;;;5.25;;
53670;SDS011;39571;48.612;8.088;2023-04-15T07:10:28;13.35;;;3.83;;
53670;SDS011;39571;48.612;8.088;2023-04-15T07:12:53;12.13;;;4.20;;
53670;SDS011;39571;48.612;8.088;2023-04-15T07:15:18;7.93;;;2.80;;
53670;SDS011;39571;48.612;8.088;2023-04-15T07:17:44;5.40;;;2.60;;
53670;SDS011;39571;48.612;8.088;2023-04-15T07:20:09;8.35;;;3.15;;
53670;SDS011;39571;48.612;8.088;2023-04-15T07:22:35;4.50;;;2.45;;
53670;SDS011;39571;48.612;8.088;2023-04-15T07:25:00;5.13;;;2.10;;
53670;SDS011;39571;48.612;8.088;2023-04-15T07:27:26;4.00;;;2.50;;
53670;SDS011;39571;48.612;8.088;2023-04-15T07:29:51;4.53;;;2.50;;
53670;SDS011;39571;48.612;8.088;2023-04-15T07:32:17;4.30;;;2.25;;
53670;SDS011;39571;48.612;8.088;2023-04-15T07:34:43;5.28;;;2.60;;
53670;SDS011;39571;48.612;8.088;2023-04-15T07:37:08;4.20;;;2.40;;
53670;SDS011;39571;48.612;8.088;2023-04-15T07:39:34;4.57;;;2.47;;
53670;SDS011;39571;48.612;8.088;2023-04-15T07:41:59;5.15;;;2.70;;
53670;SDS011;39571;48.612;8.088;2023-04-15T07:44:25;5.75;;;2.58;;
53670;SDS011;39571;48.612;8.088;2023-04-15T07:46:51;5.00;;;2.75;;
53670;SDS011;39571;48.612;8.088;2023-04-15T07:49:16;5.70;;;2.92;;
53670;SDS011;39571;48.612;8.088;2023-04-15T07:51:43;4.97;;;2.88;;
53670;SDS011;39571;48.612;8.088;2023-04-15T07:54:08;4.85;;;2.85;;
53670;SDS011;39571;48.612;8.088;2023-04-15T07:56:34;6.72;;;2.70;;
53670;SDS011;39571;48.612;8.088;2023-04-15T07:58:59;5.05;;;2.90;;
53670;SDS011;39571;48.612;8.088;2023-04-15T08:01:26;4.07;;;2.90;;
53670;SDS011;39571;48.612;8.088;2023-04-15T08:03:51;4.50;;;2.58;;
53670;SDS011;39571;48.612;8.088;2023-04-15T08:06:17;4.88;;;2.75;;
53670;SDS011;39571;48.612;8.088;2023-04-15T08:08:42;5.57;;;2.97;;
53670;SDS011;39571;48.612;8.088;2023-04-15T08:11:08;6.25;;;2.70;;
53670;SDS011;39571;48.612;8.088;2023-04-15T08:13:33;5.55;;;2.90;;
53670;SDS011;39571;48.612;8.088;2023-04-15T08:18:47;5.18;;;2.80;;
53670;SDS011;39571;48.612;8.088;2023-04-15T08:21:13;4.30;;;2.80;;
53670;SDS011;39571;48.612;8.088;2023-04-15T08:23:38;5.38;;;2.80;;
53670;SDS011;39571;48.612;8.088;2023-04-15T08:26:04;3.67;;;2.60;;
53670;SDS011;39571;48.612;8.088;2023-04-15T08:28:30;3.85;;;2.28;;
53670;SDS011;39571;48.612;8.088;2023-04-15T08:30:55;4.35;;;2.13;;
53670;SDS011;39571;48.612;8.088;2023-04-15T08:33:21;5.10;;;2.10;;
53670;SDS011;39571;48.612;8.088;2023-04-15T08:35:47;3.83;;;2.10;;
53670;SDS011;39571;48.612;8.088;2023-04-15T08:38:12;3.65;;;2.00;;
53670;SDS011;39571;48.612;8.088;2023-04-15T08:40:41;3.78;;;1.77;;
53670;SDS011;39571;48.612;8.088;2023-04-15T08:43:09;3.17;;;1.92;;
53670;SDS011;39571;48.612;8.088;2023-04-15T08:45:39;4.38;;;2.28;;
53670;SDS011;39571;48.612;8.088;2023-04-15T08:48:05;6.45;;;2.20;;
53670;SDS011;39571;48.612;8.088;2023-04-15T08:50:33;2.92;;;1.80;;
53670;SDS011;39571;48.612;8.088;2023-04-15T08:52:59;2.90;;;2.00;;
53670;SDS011;39571;48.612;8.088;2023-04-15T08:55:26;3.53;;;1.90;;
53670;SDS011;39571;48.612;8.088;2023-04-15T08:57:54;10.75;;;2.72;;
53670;SDS011;39571;48.612;8.088;2023-04-15T09:00:21;7.13;;;2.35;;
53670;SDS011;39571;48.612;8.088;2023-04-15T09:02:47;4.28;;;2.17;;
53670;SDS011;39571;48.612;8.088;2023-04-15T09:05:12;6.40;;;2.33;;
53670;SDS011;39571;48.612;8.088;2023-04-15T09:07:38;6.22;;;2.00;;
53670;SDS011;39571;48.612;8.088;2023-04-15T09:10:03;3.33;;;1.40;;
53670;SDS011;39571;48.612;8.088;2023-04-15T09:12:29;4.65;;;2.05;;
53670;SDS011;39571;48.612;8.088;2023-04-15T09:14:55;5.15;;;2.40;;
53670;SDS011;39571;48.612;8.088;2023-04-15T09:17:21;4.45;;;2.10;;
53670;SDS011;39571;48.612;8.088;2023-04-15T09:19:48;4.72;;;2.00;;
53670;SDS011;39571;48.612;8.088;2023-04-15T09:22:14;4.55;;;1.98;;
53670;SDS011;39571;48.612;8.088;2023-04-15T09:24:39;4.57;;;1.92;;
53670;SDS011;39571;48.612;8.088;2023-04-15T09:27:07;3.97;;;1.60;;
53670;SDS011;39571;48.612;8.088;2023-04-15T09:29:32;3.05;;;1.63;;
53670;SDS011;39571;48.612;8.088;2023-04-15T09:32:19;4.70;;;1.60;;
53670;SDS011;39571;48.612;8.088;2023-04-15T09:34:45;3.70;;;1.90;;
53670;SDS011;39571;48.612;8.088;2023-04-15T09:37:12;3.25;;;1.67;;
53670;SDS011;39571;48.612;8.088;2023-04-15T09:39:46;2.10;;;1.40;;
53670;SDS011;39571;48.612;8.088;2023-04-15T09:42:14;3.88;;;1.38;;
53670;SDS011;39571;48.612;8.088;2023-04-15T09:44:41;2.67;;;1.40;;
53670;SDS011;39571;48.612;8.088;2023-04-15T09:47:07;3.85;;;1.98;;
53670;SDS011;39571;48.612;8.088;2023-04-15T09:49:32;3.67;;;2.03;;
53670;SDS011;39571;48.612;8.088;2023-04-15T09:52:01;4.03;;;1.63;;
53670;SDS011;39571;48.612;8.088;2023-04-15T09:54:33;2.50;;;1.50;;
53670;SDS011;39571;48.612;8.088;2023-04-15T09:57:03;3.90;;;1.60;;
53670;SDS011;39571;48.612;8.088;2023-04-15T09:59:30;3.80;;;1.83;;
53670;SDS011;39571;48.612;8.088;2023-04-15T10:01:55;3.85;;;1.50;;
53670;SDS011;39571;48.612;8.088;2023-04-15T10:04:21;2.63;;;1.30;;
53670;SDS011;39571;48.612;8.088;2023-04-15T10:06:47;3.67;;;1.77;;
53670;SDS011;39571;48.612;8.088;2023-04-15T10:09:13;3.20;;;1.60;;
53670;SDS011;39571;48.612;8.088;2023-04-15T10:11:38;3.08;;;1.58;;
53670;SDS011;39571;48.612;8.088;2023-04-15T10:14:04;2.88;;;1.77;;
53670;SDS011;39571;48.612;8.088;2023-04-15T10:16:32;3.25;;;1.50;;
53670;SDS011;39571;48.612;8.088;2023-04-15T10:19:00;4.07;;;1.58;;
53670;SDS011;39571;48.612;8.088;2023-04-15T10:21:27;4.00;;;1.50;;
53670;SDS011;39571;48.612;8.088;2023-04-15T10:23:52;2.38;;;1.33;;
53670;SDS011;39571;48.612;8.088;2023-04-15T10:26:18;4.32;;;1.38;;
53670;SDS011;39571;48.612;8.088;2023-04-15T10:28:44;3.05;;;1.10;;
53670;SDS011;39571;48.612;8.088;2023-04-15T10:31:11;3.53;;;1.48;;
53670;SDS011;39571;48.612;8.088;2023-04-15T10:33:40;2.92;;;1.52;;
53670;SDS011;39571;48.612;8.088;2023-04-15T10:36:08;2.53;;;1.30;;
53670;SDS011;39571;48.612;8.088;2023-04-15T10:38:37;3.95;;;1.50;;
53670;SDS011;39571;48.612;8.088;2023-04-15T10:41:19;4.10;;;1.50;;
53670;SDS011;39571;48.612;8.088;2023-04-15T10:46:17;5.30;;;1.70;;
53670;SDS011;39571;48.612;8.088;2023-04-15T10:48:48;4.20;;;1.70;;
53670;SDS011;39571;48.612;8.088;2023-04-15T10:51:15;3.50;;;1.60;;
53670;SDS011;39571;48.612;8.088;2023-04-15T10:53:41;3.95;;;1.80;;
53670;SDS011;39571;48.612;8.088;2023-04-15T10:56:06;4.30;;;1.92;;
53670;SDS011;39571;48.612;8.088;2023-04-15T10:58:41;2.95;;;1.80;;
53670;SDS011;39571;48.612;8.088;2023-04-15T11:01:07;3.45;;;1.40;;
53670;SDS011;39571;48.612;8.088;2023-04-15T11:03:35;3.60;;;1.58;;
53670;SDS011;39571;48.612;8.088;2023-04-15T11:06:05;5.97;;;1.95;;
53670;SDS011;39571;48.612;8.088;2023-04-15T11:11:20;4.15;;;1.80;;
53670;SDS011;39571;48.612;8.088;2023-04-15T11:13:46;4.50;;;1.60;;
53670;SDS011;39571;48.612;8.088;2023-04-15T11:16:14;3.10;;;1.52;;
53670;SDS011;39571;48.612;8.088;2023-04-15T11:18:39;4.38;;;1.77;;
53670;SDS011;39571;48.612;8.088;2023-04-15T11:21:05;3.30;;;1.60;;
53670;SDS011;39571;48.612;8.088;2023-04-15T11:23:38;4.03;;;1.73;;
53670;SDS011;39571;48.612;8.088;2023-04-15T11:26:08;3.80;;;1.67;;
53670;SDS011;39571;48.612;8.088;2023-04-15T11:28:36;6.43;;;1.77;;
53670;SDS011;39571;48.612;8.088;2023-04-15T11:31:15;3.83;;;1.80;;
53670;SDS011;39571;48.612;8.088;2023-04-15T11:34:00;5.28;;;2.00;;
53670;SDS011;39571;48.612;8.088;2023-04-15T11:36:27;3.00;;;1.35;;
53670;SDS011;39571;48.612;8.088;2023-04-15T11:38:56;4.28;;;1.65;;
53670;SDS011;39571;48.612;8.088;2023-04-15T11:41:23;3.53;;;1.40;;
53670;SDS011;39571;48.612;8.088;2023-04-15T11:43:49;4.95;;;1.85;;
53670;SDS011;39571;48.612;8.088;2023-04-15T11:46:15;3.83;;;1.33;;
53670;SDS011;39571;48.612;8.088;2023-04-15T11:48:42;5.35;;;1.60;;
53670;SDS011;39571;48.612;8.088;2023-04-15T11:51:08;2.45;;;1.40;;
53670;SDS011;39571;48.612;8.088;2023-04-15T11:53:48;2.83;;;1.25;;
53670;SDS011;39571;48.612;8.088;2023-04-15T11:56:21;3.05;;;1.38;;
53670;SDS011;39571;48.612;8.088;2023-04-15T11:58:50;2.80;;;1.52;;
53670;SDS011;39571;48.612;8.088;2023-04-15T12:01:17;3.78;;;1.20;;
53670;SDS011;39571;48.612;8.088;2023-04-15T12:03:44;4.72;;;1.70;;
53670;SDS011;39571;48.612;8.088;2023-04-15T12:08:55;5.05;;;1.80;;
53670;SDS011;39571;48.612;8.088;2023-04-15T12:14:36;4.22;;;1.50;;
53670;SDS011;39571;48.612;8.088;2023-04-15T12:16:51;3.38;;;1.40;;
53670;SDS011;39571;48.612;8.088;2023-04-15T12:19:25;2.80;;;1.40;;
53670;SDS011;39571;48.612;8.088;2023-04-15T12:21:54;3.17;;;1.10;;
53670;SDS011;39571;48.612;8.088;2023-04-15T12:24:23;3.08;;;1.30;;
53670;SDS011;39571;48.612;8.088;2023-04-15T12:26:49;4.45;;;1.30;;
53670;SDS011;39571;48.612;8.088;2023-04-15T12:29:17;2.70;;;1.30;;
53670;SDS011;39571;48.612;8.088;2023-04-15T12:31:47;4.28;;;1.40;;
53670;SDS011;39571;48.612;8.088;2023-04-15T12:34:14;4.35;;;1.48;;
53670;SDS011;39571;48.612;8.088;2023-04-15T12:36:40;3.58;;;1.13;;
53670;SDS011;39571;48.612;8.088;2023-04-15T12:39:05;2.72;;;1.17;;
53670;SDS011;39571;48.612;8.088;2023-04-15T12:41:31;3.85;;;1.55;;
53670;SDS011;39571;48.612;8.088;2023-04-15T12:43:57;2.22;;;1.17;;
53670;SDS011;39571;48.612;8.088;2023-04-15T12:46:23;3.60;;;1.50;;
53670;SDS011;39571;48.612;8.088;2023-04-15T12:48:49;3.15;;;1.42;;
53670;SDS011;39571;48.612;8.088;2023-04-15T12:51:16;2.70;;;1.42;;
53670;SDS011;39571;48.612;8.088;2023-04-15T12:53:42;4.13;;;1.70;;
53670;SDS011;39571;48.612;8.088;2023-04-15T12:56:07;3.78;;;1.60;;
53670;SDS011;39571;48.612;8.088;2023-04-15T12:58:32;3.58;;;1.75;;
53670;SDS011;39571;48.612;8.088;2023-04-15T13:00:58;4.40;;;2.20;;
53670;SDS011;39571;48.612;8.088;2023-04-15T13:03:23;4.55;;;1.90;;
53670;SDS011;39571;48.612;8.088;2023-04-15T13:05:48;4.63;;;1.80;;
53670;SDS011;39571;48.612;8.088;2023-04-15T13:08:14;5.30;;;2.22;;
53670;SDS011;39571;48.612;8.088;2023-04-15T13:10:39;4.85;;;1.88;;
53670;SDS011;39571;48.612;8.088;2023-04-15T13:13:06;5.70;;;2.50;;
53670;SDS011;39571;48.612;8.088;2023-04-15T13:15:32;3.53;;;1.83;;
53670;SDS011;39571;48.612;8.088;2023-04-15T13:17:58;2.65;;;1.80;;
53670;SDS011;39571;48.612;8.088;2023-04-15T13:20:23;3.85;;;1.77;;
53670;SDS011;39571;48.612;8.088;2023-04-15T13:22:51;4.40;;;1.88;;
53670;SDS011;39571;48.612;8.088;2023-04-15T13:25:18;3.25;;;1.70;;
53670;SDS011;39571;48.612;8.088;2023-04-15T13:27:43;3.83;;;1.60;;
53670;SDS011;39571;48.612;8.088;2023-04-15T13:30:09;3.42;;;1.95;;
53670;SDS011;39571;48.612;8.088;2023-04-15T13:32:34;3.58;;;1.80;;
53670;SDS011;39571;48.612;8.088;2023-04-15T13:35:00;3.90;;;2.00;;
53670;SDS011;39571;48.612;8.088;2023-04-15T13:37:26;7.10;;;2.80;;
53670;SDS011;39571;48.612;8.088;2023-04-15T13:39:52;4.55;;;2.28;;
53670;SDS011;39571;48.612;8.088;2023-04-15T13:42:18;4.15;;;2.10;;
53670;SDS011;39571;48.612;8.088;2023-04-15T13:44:43;3.25;;;1.92;;
53670;SDS011;39571;48.612;8.088;2023-04-15T13:47:08;4.75;;;2.30;;
53670;SDS011;39571;48.612;8.088;2023-04-15T13:49:34;4.63;;;2.30;;
53670;SDS011;39571;48.612;8.088;2023-04-15T13:51:59;4.20;;;2.03;;
53670;SDS011;39571;48.612;8.088;2023-04-15T13:54:24;4.43;;;2.50;;
53670;SDS011;39571;48.612;8.088;2023-04-15T13:56:50;4.88;;;2.58;;
53670;SDS011;39571;48.612;8.088;2023-04-15T13:59:16;5.47;;;2.63;;
53670;SDS011;39571;48.612;8.088;2023-04-15T14:01:41;4.82;;;2.70;;
53670;SDS011;39571;48.612;8.088;2023-04-15T14:04:07;7.85;;;2.72;;
53670;SDS011;39571;48.612;8.088;2023-04-15T14:06:32;5.25;;;2.30;;
53670;SDS011;39571;48.612;8.088;2023-04-15T14:08:58;6.35;;;2.60;;
53670;SDS011;39571;48.612;8.088;2023-04-15T14:11:23;4.85;;;2.30;;
53670;SDS011;39571;48.612;8.088;2023-04-15T14:13:48;4.75;;;2.40;;
53670;SDS011;39571;48.612;8.088;2023-04-15T14:16:14;5.05;;;2.28;;
53670;SDS011;39571;48.612;8.088;2023-04-15T14:18:39;5.78;;;2.40;;
53670;SDS011;39571;48.612;8.088;2023-04-15T14:21:04;5.65;;;2.50;;
53670;SDS011;39571;48.612;8.088;2023-04-15T14:23:31;6.72;;;2.97;;
53670;SDS011;39571;48.612;8.088;2023-04-15T14:25:56;5.97;;;2.35;;
53670;SDS011;39571;48.612;8.088;2023-04-15T14:28:22;3.60;;;2.33;;
53670;SDS011;39571;48.612;8.088;2023-04-15T14:30:53;4.05;;;2.10;;
53670;SDS011;39571;48.612;8.088;2023-04-15T14:33:18;5.38;;;2.08;;
53670;SDS011;39571;48.612;8.088;2023-04-15T14:35:44;3.53;;;2.05;;
53670;SDS011;39571;48.612;8.088;2023-04-15T14:38:09;6.13;;;2.20;;
53670;SDS011;39571;48.612;8.088;2023-04-15T14:40:35;5.40;;;1.90;;
53670;SDS011;39571;48.612;8.088;2023-04-15T14:43:01;4.40;;;2.20;;
53670;SDS011;39571;48.612;8.088;2023-04-15T14:45:26;5.25;;;2.30;;
53670;SDS011;39571;48.612;8.088;2023-04-15T14:47:52;5.18;;;2.20;;
53670;SDS011;39571;48.612;8.088;2023-04-15T14:50:17;3.95;;;1.92;;
53670;SDS011;39571;48.612;8.088;2023-04-15T14:52:43;5.55;;;2.17;;
53670;SDS011;39571;48.612;8.088;2023-04-15T14:55:09;4.35;;;2.22;;
53670;SDS011;39571;48.612;8.088;2023-04-15T14:57:38;5.60;;;2.42;;
53670;SDS011;39571;48.612;8.088;2023-04-15T15:00:05;3.97;;;2.20;;
